Home > Products > Valid Products > TAF

000
FTUS44 KEPZ 011700
TAFDMN
TAF
KDMN 011737Z 0118/0218 VRB03KT P6SM BKN005
      TEMPO 0118/0119 5SM BR OVC003
     FM011900 06006KT P6SM SCT020
     FM012100 08007KT P6SM SCT050
      TEMPO 0121/0124 BKN050
     FM020900 VRB04KT 5SM BR SKC
     FM021100 VRB03KT 1SM BR SKC
      TEMPO 0211/0215 1/2SM FG VV003
     FM021500 10003KT 5SM BR BKN005
     FM021700 09005KT P6SM SKC=



000
FTUS44 KEPZ 011700
TAFTCS
TAF
KTCS 011737Z 0118/0218 04005KT P6SM FEW040
     FM020000 VRB03KT P6SM SKC
     FM020900 31005KT 5SM BR SKC
     FM021100 31004KT 3SM BR SKC
     FM021700 VRB04KT P6SM FEW030=



000
FTUS44 KEPZ 011700
TAFELP
TAF
KELP 011737Z 0118/0218 02007KT P6SM SCT005 SCT040
      TEMPO 0118/0119 BKN005 BKN040
     FM012000 02007KT P6SM SCT060
     FM020000 07004KT P6SM SKC
     FM021000 VRB03KT 3SM BR BKN007
      TEMPO 0210/0214 1SM BR BKN005
     FM021700 VRB06KT P6SM FEW030=



000
FTUS44 KEPZ 011600 AAB
TAFELP
TAF AMD
KELP 011617Z 0116/0212 01009KT P6SM SCT004 BKN035
      TEMPO 0116/0118 1/2SM FG BKN004 OVC035
     FM011800 02009KT P6SM SCT035
     FM012000 02007KT P6SM SCT060 SCT250
     FM020000 09008KT P6SM SCT250=



000
FTUS44 KEPZ 011600 AAB
TAFELP
TAF AMD
KELP 011617Z 0116/0212 01009KT P6SM SCT004 BKN035
      TEMPO 0116/0118 1/2SM FG BKN004 OVC035
     FM011800 02009KT P6SM SCT035
     FM012000 02007KT P6SM SCT060 SCT250
     FM020000 09008KT P6SM SCT250=



000
FTUS44 KEPZ 011600 AAA
TAFELP
TAF AMD
KELP 011609Z 0116/0212 01009KT P6SM SCT006 BKN035
      TEMPO 0116/0118 5SM BR BKN025
     FM012000 02007KT P6SM SCT060 SCT250
     FM020000 09008KT P6SM SCT250=



000
FTUS44 KEPZ 011600 AAA
TAFELP
TAF AMD
KELP 011609Z 0116/0212 01009KT P6SM SCT006 BKN035
      TEMPO 0116/0118 5SM BR BKN025
     FM012000 02007KT P6SM SCT060 SCT250
     FM020000 09008KT P6SM SCT250=



000
FTUS44 KEPZ 011500 AAB
TAFDMN
TAF AMD
KDMN 011535Z 0116/0212 VRB03KT 3SM BR BKN005
      TEMPO 0116/0117 1/4SM FG OVC003
     FM011700 31005KT 5SM BR BKN010
     FM011900 34007KT P6SM SCT030 SCT250=



000
FTUS44 KEPZ 011400 AAA
TAFTCS
TAF AMD
KTCS 011419Z 0114/0212 35007KT P6SM FEW010
     FM011900 01009KT P6SM SCT050 SCT250
     FM020300 06007KT P6SM SCT250=



000
FTUS44 KEPZ 011300 AAA
TAFDMN
TAF AMD
KDMN 011321Z 0113/0212 VRB05KT 3SM BR BKN005
      TEMPO 0113/0116 1/4SM FG VV002
     FM011900 34007KT P6SM SCT050 SCT250=



000
FTUS44 KEPZ 011100
TAFDMN
TAF
KDMN 011128Z 0112/0212 27007KT P6SM BKN200
      TEMPO 0112/0116 4SM BR FEW008
     FM011900 34007KT P6SM SCT050 SCT250=



000
FTUS44 KEPZ 011100
TAFTCS
TAF
KTCS 011128Z 0112/0212 32007KT P6SM FEW005 BKN050
      TEMPO 0112/0116 3SM BR BKN005
     FM011900 01009KT P6SM SCT050 SCT250
     FM020300 06007KT P6SM SCT250=



000
FTUS44 KEPZ 011100
TAFELP
TAF
KELP 011128Z 0112/0212 VRB06KT P6SM SCT060 BKN200
      TEMPO 0112/0116 5SM BR FEW008
     FM012000 02007KT P6SM SCT060 SCT250
     FM020000 09008KT P6SM SCT250=



000
FTUS44 KEPZ 010600 AAA
TAFTCS
TAF AMD
KTCS 010653Z 0107/0206 02006KT P6SM BKN004
     FM010900 34007KT P6SM BKN004
      TEMPO 0109/0113 2SM BR
     FM011600 02007KT P6SM BKN030 BKN080
     FM012200 03007KT P6SM SCT050 SCT200
     FM020300 33005KT P6SM FEW050 SCT200=



000
FTUS44 KEPZ 010600 AAA
TAFTCS
TAF AMD
KTCS 010653Z 0107/0206 02006KT P6SM BKN004
     FM010900 34007KT P6SM BKN004
      TEMPO 0109/0113 2SM BR
     FM011600 02007KT P6SM BKN030 BKN080
     FM012200 03007KT P6SM SCT050 SCT200
     FM020300 33005KT P6SM FEW050 SCT200=



000
FTUS44 KEPZ 010500
TAFDMN
TAF
KDMN 010523Z 0106/0206 26007KT P6SM VCSH SCT040 BKN140
     FM011000 29007KT P6SM VCSH SCT010 BKN025 BKN140
      TEMPO 0111/0115 3SM BR
     FM011700 33007KT P6SM SCT030 BKN080
     FM012200 35007KT P6SM SCT050 SCT200=



000
FTUS44 KEPZ 010500
TAFELP
TAF
KELP 010523Z 0106/0206 27005KT P6SM SCT040 BKN140
     FM011000 29007KT P6SM SCT010 BKN025 BKN140
      TEMPO 0111/0115 6SM BR
     FM011700 32007KT P6SM BKN030 BKN080
     FM012200 03007KT P6SM SCT050 SCT200=



000
FTUS44 KEPZ 010500
TAFTCS
TAF
KTCS 010523Z 0106/0206 32006KT P6SM VCSH SCT050 BKN140
     FM010900 34007KT P6SM SCT010 BKN025 BKN140
      TEMPO 0109/0113 2SM BR
     FM011600 02007KT P6SM BKN030 BKN080
     FM012200 03007KT P6SM SCT050 SCT200
     FM020300 33005KT P6SM FEW050 SCT200=



000
FTUS44 KEPZ 010500
TAFDMN
TAF
KDMN 010523Z 0106/0206 26007KT P6SM VCSH SCT040 BKN140
     FM011000 29007KT P6SM VCSH SCT010 BKN025 BKN140
      TEMPO 0111/0115 3SM BR
     FM011700 33007KT P6SM SCT030 BKN080
     FM012200 35007KT P6SM SCT050 SCT200=



000
FTUS44 KEPZ 010500
TAFELP
TAF
KELP 010523Z 0106/0206 27005KT P6SM SCT040 BKN140
     FM011000 29007KT P6SM SCT010 BKN025 BKN140
      TEMPO 0111/0115 6SM BR
     FM011700 32007KT P6SM BKN030 BKN080
     FM012200 03007KT P6SM SCT050 SCT200=



000
FTUS44 KEPZ 010500
TAFTCS
TAF
KTCS 010523Z 0106/0206 32006KT P6SM VCSH SCT050 BKN140
     FM010900 34007KT P6SM SCT010 BKN025 BKN140
      TEMPO 0109/0113 2SM BR
     FM011600 02007KT P6SM BKN030 BKN080
     FM012200 03007KT P6SM SCT050 SCT200
     FM020300 33005KT P6SM FEW050 SCT200=



000
FTUS44 KEPZ 010000 CCA
TAFDMN
TAF COR
KDMN 010017Z 0100/0124 27009KT P6SM -RA SCT020 BKN035 OVC060
     FM010400 29007KT P6SM VCSH SCT030 BKN140
     FM011000 31007KT P6SM SCT010 BKN025 BKN140
      TEMPO 0111/0115 3SM BR
     FM011700 34008KT P6SM BKN030 BKN080
     FM012100 35007KT P6SM SCT040 SCT200=



000
FTUS44 KEPZ 010000 CCA
TAFDMN
TAF COR
KDMN 010017Z 0100/0124 27009KT P6SM -RA SCT020 BKN035 OVC060
     FM010400 29007KT P6SM VCSH SCT030 BKN140
     FM011000 31007KT P6SM SCT010 BKN025 BKN140
      TEMPO 0111/0115 3SM BR
     FM011700 34008KT P6SM BKN030 BKN080
     FM012100 35007KT P6SM SCT040 SCT200=



000
FTUS44 KEPZ 010000 CCA
TAFTCS
TAF COR
KTCS 010014Z 0100/0124 23005KT P6SM VCSH SCT035 BKN050 OVC250
     FM010400 30007KT P6SM VCSH SCT040 BKN140
     FM011000 31007KT P6SM SCT010 BKN025 BKN140
      TEMPO 0111/0115 3SM BR
     FM011700 03008KT P6SM BKN030 BKN080
     FM012100 03007KT P6SM SCT040 SCT200=



000
FTUS44 KEPZ 010000 CCA
TAFTCS
TAF COR
KTCS 010014Z 0100/0124 23005KT P6SM VCSH SCT035 BKN050 OVC250
     FM010400 30007KT P6SM VCSH SCT040 BKN140
     FM011000 31007KT P6SM SCT010 BKN025 BKN140
      TEMPO 0111/0115 3SM BR
     FM011700 03008KT P6SM BKN030 BKN080
     FM012100 03007KT P6SM SCT040 SCT200=



000
FTUS44 KEPZ 010000 CCA
TAFELP
TAF COR
KELP 010011Z 0100/0124 26009KT P6SM VCSH BKN035 BKN120 OVC250
     FM010400 29007KT P6SM VCSH SCT040 BKN140
     FM011000 31007KT P6SM SCT010 BKN025 BKN140
      TEMPO 0111/0115 5SM BR
     FM011700 31008KT P6SM BKN030 BKN080
     FM012100 03007KT P6SM SCT040 SCT200=



000
FTUS44 KEPZ 312100 AAA
TAFELP
TAF AMD
KELP 312150Z 3122/0118 24007KT P6SM VCSH SCT026 BKN045
     FM010000 24007KT P6SM VCSH BKN026 OVC050
     FM010400 24006KT P6SM VCSH SCT040 BKN090
     FM011000 24006KT P6SM SCT020 BKN040
     FM011600 31008KT P6SM BKN025=



000
FTUS44 KEPZ 312100 AAA
TAFELP
TAF AMD
KELP 312150Z 3122/0118 24007KT P6SM VCSH SCT026 BKN045
     FM010000 24007KT P6SM VCSH BKN026 OVC050
     FM010400 24006KT P6SM VCSH SCT040 BKN090
     FM011000 24006KT P6SM SCT020 BKN040
     FM011600 31008KT P6SM BKN025=



000
FTUS44 KEPZ 311700
TAFDMN
TAF
KDMN 311731Z 3118/0118 14007KT P6SM BKN004 OVC010
     FM311900 14007KT P6SM VCSH BKN009 OVC020
     FM312200 VRB04KT P6SM VCSH BKN025 OVC040
     FM010300 VRB04KT P6SM SCT020 BKN060
     FM010900 27004KT 3SM BR BKN020 BKN070
     FM011600 32005KT P6SM FEW020 SCT070=



000
FTUS44 KEPZ 311700
TAFTCS
TAF
KTCS 311731Z 3118/0118 VRB03KT 3SM BR BKN004 OVC012
     FM312000 16007KT 5SM BR VCSH SCT007 BKN012 OVC020
     FM312200 18006KT P6SM VCSH SCT015 BKN020
     FM010400 VRB06KT P6SM SCT020 BKN060
     FM010900 33003KT 3SM BR SCT040 BKN080
     FM011700 VRB03KT P6SM FEW020=



000
FTUS44 KEPZ 311700
TAFELP
TAF
KELP 311731Z 3118/0118 VRB06KT P6SM FEW010 SCT020 BKN025
     FM312100 VRB06KT P6SM -SHRA BKN028 OVC060
     FM010400 24006KT P6SM VCSH SCT040 BKN090
     FM011000 24006KT P6SM SCT020 BKN040
     FM011600 31008KT P6SM BKN025=



000
FTUS44 KEPZ 311500 AAA
TAFTCS
TAF AMD
KTCS 311551Z 3116/0112 VRB03KT P6SM BKN003 OVC011
     FM312000 18008KT P6SM VCSH SCT007 BKN020 OVC050
     FM010400 25007KT P6SM SCT020 BKN060=



000
FTUS44 KEPZ 311400 AAA
TAFDMN
TAF AMD
KDMN 311441Z 3115/0112 07006KT P6SM SCT003 OVC012
      TEMPO 3115/3117 3/4SM -RA BR OVC003
     FM311900 17007KT 6SM -SHRA BKN022 OVC060
     FM010300 25009KT P6SM SCT020 BKN060=



000
FTUS44 KEPZ 311400 AAA
TAFELP
TAF AMD
KELP 311441Z 3115/0112 VRB05KT P6SM VCSH OVC011
     FM311600 15006KT P6SM -RA BKN012 OVC020
     FM311900 22006KT P6SM -SHRA BKN025 OVC060
     FM010400 24008KT P6SM SCT025 BKN060=



000
FTUS44 KEPZ 311100 RRA
TAFDMN
TAF
KDMN 311145Z 3112/0112 08006KT P6SM SCT005 OVC015
      TEMPO 3112/3115 2SM BR OVC005
     FM311900 17007KT 6SM -SHRA BKN020 OVC060
     FM010300 25009KT P6SM SCT020 BKN060=



000
FTUS44 KEPZ 311100 RRA
TAFELP
TAF
KELP 311145Z 3112/0112 VRB04KT 6SM -RA BKN015 OVC050
     FM311500 15006KT P6SM VCSH SCT015 BKN060
     FM312100 18007KT 6SM -SHRA BKN025 OVC060
     FM010400 24008KT P6SM SCT025 BKN060=



000
FTUS44 KEPZ 311100 RRA
TAFTCS
TAF
KTCS 311145Z 3112/0112 VRB05KT 6SM -RA SCT004 OVC015
      TEMPO 3112/3115 2SM -RA BR OVC004
     FM311500 16007KT P6SM VCSH BKN015 OVC050
     FM312000 18008KT 6SM -SHRA BKN020 OVC050
     FM010400 25007KT P6SM SCT020 BKN060=



000
FTUS44 KEPZ 310500
TAFDMN
TAF
KDMN 310525Z 3106/0106 07008KT 3SM -RA BR OVC010
     FM311200 10007KT P6SM VCSH BKN015 OVC100
      TEMPO 3112/3115 2SM BR OVC005
     FM311500 15003KT P6SM VCSH BKN015 BKN080
     FM010300 27007KT P6SM BKN040 OVC100=



000
FTUS44 KEPZ 310500
TAFTCS
TAF
KTCS 310525Z 3106/0106 15004KT 6SM -RA OVC009
     FM311200 12003KT 6SM -SHRA OVC015
      TEMPO 3112/3115 2SM BR OVC005
     FM311500 15003KT P6SM VCSH BKN015 BKN080
     FM010400 30006KT P6SM BKN020 OVC080=



000
FTUS44 KEPZ 310500
TAFELP
TAF
KELP 310525Z 3106/0106 08005KT 6SM -RA OVC015
      TEMPO 3106/3110 3SM -RA BR BKN010 OVC015
     FM311200 VRB04KT 6SM -RA BKN020 OVC100
     FM312100 27007KT P6SM VCSH BKN060
     FM010400 26007KT P6SM BKN030 OVC080=



000
FTUS44 KEPZ 310200 AAA
TAFDMN
TAF AMD
KDMN 310235Z 3103/3124 08012KT 5SM -RA OVC020
      TEMPO 3103/3105 1SM RA BR OVC005
     FM310500 06006KT 6SM -RA OVC015
     FM311500 10002KT P6SM VCSH BKN015 OVC100=



000
FTUS44 KEPZ 302300
TAFDMN
TAF
KDMN 302336Z 3100/3124 08012KT 5SM -RA OVC020
      TEMPO 3100/3104 3SM RA OVC015
     FM310400 06006KT 6SM -RA OVC015
     FM311500 10002KT P6SM VCSH BKN015 OVC100=



000
FTUS44 KEPZ 302300
TAFTCS
TAF
KTCS 302336Z 3100/3124 04007KT P6SM -SHRA OVC015
     FM310600 15004KT 4SM -RA OVC010
     FM311200 12003KT 6SM -SHRA OVC010
      TEMPO 3112/3115 2SM BR
     FM311700 15003KT P6SM SCT020 BKN080=



000
FTUS44 KEPZ 302300
TAFELP
TAF
KELP 302336Z 3100/3124 09011KT P6SM SHRA BKN020 OVC080
      TEMPO 3102/3106 3SM RA OVC015
     FM310600 08005KT 6SM -RA OVC015
     FM311500 VRB04KT P6SM VCSH BKN020 OVC100=



000
FTUS44 KEPZ 301700
TAFELP
TAF
KELP 301724Z 3018/3118 07011G18KT P6SM VCSH SCT020 OVC080
     FM302100 09011KT P6SM SHRA BKN020 OVC080
      TEMPO 3102/3106 3SM RA OVC015
     FM310600 08005KT 6SM -RA OVC015
     FM311400 VRB04KT P6SM VCSH BKN020 OVC100=



000
FTUS44 KEPZ 301700
TAFTCS
TAF
KTCS 301724Z 3018/3118 04007KT P6SM -SHRA OVC015
     FM310600 15004KT 4SM -RA OVC010
     FM311200 12003KT 6SM -SHRA OVC010
      TEMPO 3112/3115 2SM BR
     FM311700 15003KT P6SM SCT020 BKN080=



000
FTUS44 KEPZ 301700
TAFDMN
TAF
KDMN 301724Z 3018/3118 08015G22KT P6SM -SHRA BKN015 OVC080
     FM302000 08012KT 6SM -RA OVC015
      TEMPO 3100/3104 3SM RA OVC010
     FM310400 06006KT 6SM -RA OVC010
     FM311400 10002KT P6SM VCSH BKN015 OVC100=



000
FTUS44 KEPZ 301200 RRA
TAFDMN
TAF
KDMN 301202Z 3012/3112 08015G23KT P6SM -RA OVC010
     FM301300 08015G23KT P6SM VCSH OVC030
      TEMPO 3013/3017 3SM SHRA OVC010
     FM301700 10008KT P6SM -SHRA BKN025
     FM310000 11008KT P6SM VCSH BKN050
      TEMPO 3100/3104 5SM SHRA BKN020=



000
FTUS44 KEPZ 301200 RRA
TAFTCS
TAF
KTCS 301202Z 3012/3112 02010KT P6SM -RA OVC025
     FM301400 03009KT P6SM VCSH BKN030
      TEMPO 3014/3018 3SM SHRA BKN015
     FM301800 VRB05KT P6SM -SHRA BKN020
     FM310200 29006KT P6SM VCSH BKN050
      TEMPO 3102/3106 3SM SHRA BKN020=



000
FTUS44 KEPZ 301200 RRA
TAFELP
TAF
KELP 301202Z 3012/3112 06010KT P6SM VCSH OVC030
      TEMPO 3012/3016 3SM SHRA OVC020
     FM301600 05006KT P6SM -SHRA BKN030
     FM310000 11008KT P6SM VCSH BKN050
      TEMPO 3100/3104 5SM SHRA BKN030=



000
FTUS44 KEPZ 301000 AAA
TAFDMN
TAF AMD
KDMN 301002Z 3010/3106 08012G20KT P6SM SHRA OVC035
      TEMPO 3010/3012 08012G20KT 3SM RA OVC015
     FM301200 08021G28KT 3SM -RA OVC025
     FM301900 10008KT P6SM -SHRA BKN025=



000
FTUS44 KEPZ 300500
TAFDMN
TAF
KDMN 300520Z 3006/3106 08012G20KT P6SM SHRA OVC035
     FM301200 08021G28KT 3SM -RA OVC025
     FM301900 10008KT P6SM -SHRA BKN025=



000
FTUS44 KEPZ 300500
TAFTCS
TAF
KTCS 300520Z 3006/3106 09010KT P6SM SHRA SCT020 OVC035
     FM301200 04010KT 3SM -RA BR OVC020
     FM302000 VRB05KT P6SM -SHRA BKN020
     FM310200 29006KT P6SM -SHRA BKN020=



000
FTUS44 KEPZ 300500
TAFELP
TAF
KELP 300520Z 3006/3106 07016KT P6SM VCSH BKN060 OVC100
     FM300800 09011G18KT P6SM SHRA OVC035
     FM301200 06014G20KT 3SM -RA OVC030
     FM302000 05006KT P6SM -SHRA BKN030=



000
FTUS44 KEPZ 292300
TAFELP
TAF
KELP 292336Z 3000/3024 07016KT P6SM VCSH BKN060 OVC100
     FM300300 09011G18KT P6SM SHRA OVC035
     FM301200 06014G20KT 3SM -RA OVC030
     FM302000 05006KT P6SM -SHRA BKN030=



000
FTUS44 KEPZ 292300
TAFTCS
TAF
KTCS 292336Z 3000/3024 03012G18KT P6SM VCSH BKN050 OVC100
     FM300400 09010KT P6SM SHRA SCT020 OVC035
     FM301200 04010KT 3SM -RA BR OVC020
     FM302000 VRB05KT P6SM -SHRA BKN020=



000
FTUS44 KEPZ 292300
TAFDMN
TAF
KDMN 292336Z 3000/3024 10015G24KT P6SM VCSH BKN050 OVC080
     FM300200 08020G28KT P6SM SHRA OVC035
     FM301200 08021G28KT 3SM -RA OVC025
     FM301900 10008KT P6SM -SHRA BKN025=



    US Dept of Commerce
    National Oceanic and Atmospheric Administration
    National Weather Service
    1325 East West Highway
    Silver Spring, MD 20910
    Page Author: NWS Internet Services Team
Disclaimer
Information Quality
Credits
Glossary
Privacy Policy
Freedom of Information Act (FOIA)
About Us
Career Opportunities